Time;durP1;ratioP1;P1;durP2;ratioP2;P2;SDS_P1;SDS_P2;PMS_P1;PMS_P2;Temp;Humidity;BMP_temperature;BMP_pressure;BME280_temperature;BME280_humidity;BME280_pressure;Samples;Min_cycle;Max_cycle;Signal;HPM_P1;HPM_P2
2023/07/07 00:00:55;;;;;;;6.53;4.43;;;;;;;;;;10468566;28;20607;-84
2023/07/07 00:05:55;;;;;;;;;;;;;;;;;;10460359;28;20052;-80
2023/07/07 00:10:58;;;;;;;5.03;4.30;;;;;;;;;;10499146;28;19930;-81
2023/07/07 00:16:02;;;;;;;4.93;4.45;;;;;;;;;;10535105;28;20040;-80
2023/07/07 00:21:04;;;;;;;5.45;4.53;;;;;;;;;;10493217;28;20056;-78
2023/07/07 00:26:07;;;;;;;5.83;4.57;;;;;;;;;;10466939;28;20062;-80
2023/07/07 00:31:08;;;;;;;5.22;4.70;;;;;;;;;;10488608;28;20321;-80
2023/07/07 00:36:08;;;;;;;5.77;4.80;;;;;;;;;;10486450;28;20131;-79
2023/07/07 00:41:10;;;;;;;5.60;4.47;;;;;;;;;;10490815;28;20282;-77
2023/07/07 00:46:10;;;;;;;4.88;4.35;;;;;;;;;;10502623;28;20293;-76
2023/07/07 00:51:37;;;;;;;4.90;4.28;;;;;;;;;;10499417;28;20066;-78
2023/07/07 00:56:47;;;;;;;5.97;4.38;;;;;;;;;;10483447;28;20061;-75
2023/07/07 01:01:51;;;;;;;5.65;4.32;;;;;;;;;;10485022;28;20051;-78
2023/07/07 01:06:54;;;;;;;5.10;4.38;;;;;;;;;;10476512;28;20033;-78
2023/07/07 01:11:54;;;;;;;5.65;4.70;;;;;;;;;;10482744;28;20041;-77
2023/07/07 01:17:04;;;;;;;6.53;5.13;;;;;;;;;;10476646;28;20048;-80
2023/07/07 01:22:05;;;;;;;5.88;4.63;;;;;;;;;;10487123;28;20079;-80
2023/07/07 01:27:22;;;;;;;7.25;5.00;;;;;;;;;;10480255;28;20062;-80
2023/07/07 01:32:25;;;;;;;6.80;5.07;;;;;;;;;;10484822;28;20124;-87
2023/07/07 01:37:26;;;;;;;5.28;4.75;;;;;;;;;;10486139;28;20123;-86
2023/07/07 01:42:39;;;;;;;6.55;4.63;;;;;;;;;;10468983;28;20043;-83
2023/07/07 01:47:44;;;;;;;5.17;4.50;;;;;;;;;;10486017;28;20844;-80
2023/07/07 01:52:48;;;;;;;8.98;5.35;;;;;;;;;;10477109;28;20021;-80
2023/07/07 01:57:50;;;;;;;5.85;5.25;;;;;;;;;;10457263;28;20121;-81
2023/07/07 02:02:51;;;;;;;5.80;5.10;;;;;;;;;;10467075;28;20048;-83
2023/07/07 02:07:52;;;;;;;7.13;4.97;;;;;;;;;;10483847;28;20922;-81
2023/07/07 02:12:53;;;;;;;6.72;4.47;;;;;;;;;;10504340;28;20032;-79
2023/07/07 02:17:54;;;;;;;6.50;4.93;;;;;;;;;;10482875;28;20044;-77
2023/07/07 02:22:57;;;;;;;5.97;4.67;;;;;;;;;;10478775;28;20052;-79
2023/07/07 02:27:58;;;;;;;5.57;4.90;;;;;;;;;;10488469;28;20054;-82
2023/07/07 02:32:59;;;;;;;5.80;4.82;;;;;;;;;;10510554;28;20585;-77
2023/07/07 02:37:59;;;;;;;9.93;5.20;;;;;;;;;;10485548;28;20028;-79
2023/07/07 02:43:00;;;;;;;6.80;4.60;;;;;;;;;;10478136;28;20456;-80
2023/07/07 02:48:01;;;;;;;7.50;5.20;;;;;;;;;;10470319;28;20044;-77
2023/07/07 02:53:02;;;;;;;6.50;5.33;;;;;;;;;;10462550;28;20035;-78
2023/07/07 02:58:03;;;;;;;8.02;5.38;;;;;;;;;;10482353;28;20032;-78
2023/07/07 03:03:03;;;;;;;7.10;4.95;;;;;;;;;;10485588;28;20047;-80
2023/07/07 03:08:04;;;;;;;8.17;5.40;;;;;;;;;;10478461;28;20066;-79
2023/07/07 03:13:04;;;;;;;6.38;5.13;;;;;;;;;;10479470;28;20036;-78
2023/07/07 03:18:09;;;;;;;5.65;5.10;;;;;;;;;;10470227;28;20049;-82
2023/07/07 03:23:12;;;;;;;6.18;5.40;;;;;;;;;;10466016;28;20462;-78
2023/07/07 03:28:13;;;;;;;5.65;5.00;;;;;;;;;;10469227;28;20039;-78
2023/07/07 03:33:16;;;;;;;7.68;4.82;;;;;;;;;;10466697;28;20044;-82
2023/07/07 03:38:19;;;;;;;9.07;5.32;;;;;;;;;;10458500;28;20028;-84
2023/07/07 03:43:20;;;;;;;5.88;5.03;;;;;;;;;;10492745;28;20379;-84
2023/07/07 03:48:21;;;;;;;10.40;5.28;;;;;;;;;;10476485;28;20146;-81
2023/07/07 03:53:21;;;;;;;7.15;5.35;;;;;;;;;;10459870;28;20048;-83
2023/07/07 03:58:23;;;;;;;8.00;5.43;;;;;;;;;;10463868;28;20052;-85
2023/07/07 04:03:25;;;;;;;7.07;5.60;;;;;;;;;;10463683;28;20044;-84
2023/07/07 04:08:25;;;;;;;6.18;5.00;;;;;;;;;;10444173;28;20032;-82
2023/07/07 04:13:31;;;;;;;6.18;5.57;;;;;;;;;;10457409;28;20584;-81
2023/07/07 04:18:33;;;;;;;8.45;5.95;;;;;;;;;;10454598;28;20040;-82
2023/07/07 04:23:35;;;;;;;8.15;5.70;;;;;;;;;;10462984;28;20032;-77
2023/07/07 04:28:38;;;;;;;5.55;4.93;;;;;;;;;;10462025;28;20068;-78
2023/07/07 04:33:38;;;;;;;7.38;5.35;;;;;;;;;;10459223;28;20415;-79
2023/07/07 04:38:39;;;;;;;6.25;5.38;;;;;;;;;;10502683;28;20058;-82
2023/07/07 04:43:47;;;;;;;7.00;5.20;;;;;;;;;;10508115;28;20534;-80
2023/07/07 04:48:48;;;;;;;7.38;5.53;;;;;;;;;;10478153;28;20123;-79
2023/07/07 04:53:48;;;;;;;8.23;5.97;;;;;;;;;;10480256;28;20075;-77
2023/07/07 04:58:50;;;;;;;5.78;5.18;;;;;;;;;;10473045;28;20754;-79
2023/07/07 05:03:52;;;;;;;6.10;5.20;;;;;;;;;;10456089;28;20044;-79
2023/07/07 05:08:52;;;;;;;4.80;4.30;;;;;;;;;;10471632;28;20033;-74
2023/07/07 05:13:53;;;;;;;5.57;5.03;;;;;;;;;;10477848;28;20388;-76
2023/07/07 05:18:53;;;;;;;6.97;4.75;;;;;;;;;;10470042;28;20056;-78
2023/07/07 05:23:54;;;;;;;5.88;5.28;;;;;;;;;;10483798;28;20032;-76
2023/07/07 05:28:59;;;;;;;6.75;4.80;;;;;;;;;;10486459;28;20086;-76
2023/07/07 05:33:59;;;;;;;9.52;5.40;;;;;;;;;;10493757;28;20040;-76
2023/07/07 05:39:00;;;;;;;8.23;5.60;;;;;;;;;;10483399;28;20071;-75
2023/07/07 05:44:01;;;;;;;5.03;4.50;;;;;;;;;;10483093;28;20042;-78
2023/07/07 05:49:01;;;;;;;6.30;4.45;;;;;;;;;;10482774;28;20282;-78
2023/07/07 05:54:03;;;;;;;6.87;5.17;;;;;;;;;;10479538;28;20545;-77
2023/07/07 05:59:04;;;;;;;5.90;5.20;;;;;;;;;;10477460;28;20037;-77
2023/07/07 06:04:04;;;;;;;6.72;4.88;;;;;;;;;;10472917;28;20286;-78
2023/07/07 06:09:06;;;;;;;7.15;4.53;;;;;;;;;;10471483;28;20087;-78
2023/07/07 06:14:06;;;;;;;6.05;5.13;;;;;;;;;;10477871;28;20070;-78
2023/07/07 06:19:07;;;;;;;8.57;6.30;;;;;;;;;;10481868;28;20104;-78
2023/07/07 06:24:08;;;;;;;7.82;5.97;;;;;;;;;;10480795;28;20063;-77
2023/07/07 06:29:08;;;;;;;7.80;5.17;;;;;;;;;;10463635;28;20070;-75
2023/07/07 06:34:09;;;;;;;7.20;5.20;;;;;;;;;;10484962;28;20335;-76
2023/07/07 06:39:09;;;;;;;7.18;5.40;;;;;;;;;;10436045;28;20040;-77
2023/07/07 06:44:10;;;;;;;7.90;5.97;;;;;;;;;;10482689;28;20090;-77
2023/07/07 06:49:11;;;;;;;7.07;5.70;;;;;;;;;;10461819;28;20384;-77
2023/07/07 06:54:12;;;;;;;6.00;5.10;;;;;;;;;;10472192;28;20040;-79
2023/07/07 06:59:12;;;;;;;6.80;5.60;;;;;;;;;;10476978;28;20036;-77
2023/07/07 07:04:13;;;;;;;7.80;5.63;;;;;;;;;;10466799;28;20127;-80
2023/07/07 07:09:14;;;;;;;6.90;5.72;;;;;;;;;;10473554;28;20043;-77
2023/07/07 07:14:14;;;;;;;6.27;5.30;;;;;;;;;;10472498;28;20453;-77
2023/07/07 07:19:14;;;;;;;5.73;4.50;;;;;;;;;;10477231;28;20031;-77
2023/07/07 07:24:15;;;;;;;7.82;4.68;;;;;;;;;;10467770;28;20040;-77
2023/07/07 07:29:15;;;;;;;6.90;4.47;;;;;;;;;;10477242;28;20449;-79
2023/07/07 07:34:23;;;;;;;5.30;4.80;;;;;;;;;;10483021;28;20774;-79
2023/07/07 07:39:24;;;;;;;5.68;4.50;;;;;;;;;;10474947;28;20287;-77
2023/07/07 07:44:25;;;;;;;5.75;4.57;;;;;;;;;;10479505;28;20444;-78
2023/07/07 07:49:27;;;;;;;5.45;4.35;;;;;;;;;;10478702;28;20143;-77
2023/07/07 07:54:28;;;;;;;7.45;4.57;;;;;;;;;;10474478;28;20049;-75
2023/07/07 07:59:28;;;;;;;5.45;3.90;;;;;;;;;;10467799;28;20037;-76
2023/07/07 08:04:29;;;;;;;4.22;3.67;;;;;;;;;;10467555;28;20118;-78
2023/07/07 08:09:29;;;;;;;5.18;4.10;;;;;;;;;;10450408;28;20032;-80
2023/07/07 08:14:30;;;;;;;5.50;3.87;;;;;;;;;;10474820;28;20155;-79
2023/07/07 08:19:32;;;;;;;4.93;4.40;;;;;;;;;;10473919;28;20089;-78
2023/07/07 08:24:38;;;;;;;5.63;4.55;;;;;;;;;;10466127;28;20040;-78
2023/07/07 08:29:38;;;;;;;9.98;4.35;;;;;;;;;;10459597;28;20044;-76
2023/07/07 08:34:39;;;;;;;5.37;4.30;;;;;;;;;;10480528;28;20041;-76
2023/07/07 08:39:39;;;;;;;4.30;3.77;;;;;;;;;;10478042;28;20190;-77
2023/07/07 08:44:40;;;;;;;5.50;4.27;;;;;;;;;;10478713;28;20995;-77
2023/07/07 08:49:46;;;;;;;7.53;4.78;;;;;;;;;;10460042;28;20990;-78
2023/07/07 08:55:07;;;;;;;7.28;4.78;;;;;;;;;;10470114;28;20706;-76
2023/07/07 09:00:20;;;;;;;5.05;3.90;;;;;;;;;;10443439;28;20506;-78
2023/07/07 09:05:40;;;;;;;5.88;4.55;;;;;;;;;;10484814;28;20342;-79
2023/07/07 09:10:43;;;;;;;7.10;4.90;;;;;;;;;;10505179;28;20064;-75
2023/07/07 09:15:49;;;;;;;6.15;4.13;;;;;;;;;;10502741;28;20132;-78
2023/07/07 09:20:55;;;;;;;12.88;4.63;;;;;;;;;;10490493;28;20032;-78
2023/07/07 09:25:58;;;;;;;6.63;4.47;;;;;;;;;;10495617;28;20147;-75
2023/07/07 09:31:11;;;;;;;8.38;4.60;;;;;;;;;;10509580;28;20115;-78
2023/07/07 09:36:28;;;;;;;4.13;3.70;;;;;;;;;;10486532;28;20054;-77
2023/07/07 09:41:47;;;;;;;4.75;4.07;;;;;;;;;;10472936;28;20047;-79
2023/07/07 09:47:00;;;;;;;4.88;3.67;;;;;;;;;;10484866;28;20037;-77
2023/07/07 09:52:08;;;;;;;4.75;3.55;;;;;;;;;;10483039;28;20067;-79
2023/07/07 09:57:23;;;;;;;5.45;3.88;;;;;;;;;;10458179;28;20808;-79
2023/07/07 10:02:24;;;;;;;5.60;4.00;;;;;;;;;;10472800;28;20036;-80
2023/07/07 10:07:26;;;;;;;6.07;4.50;;;;;;;;;;10478688;28;20049;-81
2023/07/07 10:12:27;;;;;;;5.05;3.70;;;;;;;;;;10489179;28;20083;-79
2023/07/07 10:17:49;;;;;;;5.00;3.60;;;;;;;;;;10463339;28;20047;-80
2023/07/07 10:22:49;;;;;;;5.20;3.93;;;;;;;;;;10481358;28;20059;-82
2023/07/07 10:27:54;;;;;;;4.53;3.70;;;;;;;;;;10462841;28;20059;-78
2023/07/07 10:32:55;;;;;;;5.97;4.22;;;;;;;;;;10481138;28;20381;-79
2023/07/07 10:38:00;;;;;;;7.00;4.20;;;;;;;;;;10479259;28;20085;-78
2023/07/07 10:43:02;;;;;;;5.20;4.20;;;;;;;;;;10480982;28;20044;-80
2023/07/07 10:48:02;;;;;;;5.45;4.18;;;;;;;;;;10461652;28;20040;-81
2023/07/07 10:53:05;;;;;;;;;;;;;;;;;;10478505;28;20024;-77
2023/07/07 10:58:05;;;;;;;5.72;3.95;;;;;;;;;;10468882;28;19924;-78
2023/07/07 11:03:25;;;;;;;4.27;3.87;;;;;;;;;;10474339;28;20782;-79
2023/07/07 11:08:49;;;;;;;4.18;3.50;;;;;;;;;;10477258;28;20032;-80
2023/07/07 11:13:56;;;;;;;4.75;3.55;;;;;;;;;;10470826;28;20187;-78
2023/07/07 11:19:03;;;;;;;5.72;4.00;;;;;;;;;;10476994;28;20047;-78
2023/07/07 11:24:06;;;;;;;5.80;3.50;;;;;;;;;;10482165;28;20058;-78
2023/07/07 11:29:16;;;;;;;4.18;3.78;;;;;;;;;;10479405;28;20411;-77
2023/07/07 11:34:34;;;;;;;5.75;4.07;;;;;;;;;;10479459;28;20051;-78
2023/07/07 11:39:40;;;;;;;4.78;3.90;;;;;;;;;;10484978;28;20060;-83
2023/07/07 11:44:54;;;;;;;6.95;4.05;;;;;;;;;;10468851;28;20040;-77
2023/07/07 11:50:08;;;;;;;4.45;3.55;;;;;;;;;;10472995;28;20048;-79
2023/07/07 11:55:15;;;;;;;5.43;3.90;;;;;;;;;;10466710;28;20072;-80
2023/07/07 12:00:20;;;;;;;4.82;3.67;;;;;;;;;;10465184;28;20444;-79
2023/07/07 12:05:28;;;;;;;4.68;3.80;;;;;;;;;;10469223;28;20040;-81
2023/07/07 12:10:30;;;;;;;6.43;3.60;;;;;;;;;;10474009;28;20032;-78
2023/07/07 12:15:35;;;;;;;4.32;3.47;;;;;;;;;;10472480;28;20059;-82
2023/07/07 12:20:38;;;;;;;4.57;4.10;;;;;;;;;;10478527;28;20036;-78
2023/07/07 12:25:39;;;;;;;4.15;3.72;;;;;;;;;;10477224;28;20102;-80
2023/07/07 12:30:43;;;;;;;4.00;3.50;;;;;;;;;;10439282;28;20044;-79
2023/07/07 12:35:52;;;;;;;4.57;3.72;;;;;;;;;;10479624;28;20139;-78
2023/07/07 12:40:57;;;;;;;4.55;3.72;;;;;;;;;;10482555;28;20059;-80
2023/07/07 12:45:59;;;;;;;4.88;3.72;;;;;;;;;;10483671;28;20036;-79
2023/07/07 12:51:04;;;;;;;3.53;3.22;;;;;;;;;;10485491;28;20037;-81
2023/07/07 12:56:07;;;;;;;4.07;3.42;;;;;;;;;;10457181;28;20123;-80
2023/07/07 13:01:17;;;;;;;4.07;3.33;;;;;;;;;;10457991;28;20143;-80
2023/07/07 13:06:30;;;;;;;5.15;3.50;;;;;;;;;;10481869;28;20041;-80
2023/07/07 13:11:35;;;;;;;4.60;3.60;;;;;;;;;;10482294;28;20032;-85
2023/07/07 13:16:38;;;;;;;4.93;3.80;;;;;;;;;;10489824;28;20113;-82
2023/07/07 13:21:39;;;;;;;4.25;3.80;;;;;;;;;;10491809;28;20119;-81
2023/07/07 13:26:41;;;;;;;4.10;3.20;;;;;;;;;;10479289;28;20808;-80
2023/07/07 13:31:41;;;;;;;3.80;3.40;;;;;;;;;;10498548;28;20074;-80
2023/07/07 13:36:42;;;;;;;4.07;3.63;;;;;;;;;;10518396;28;21020;-82
2023/07/07 13:41:44;;;;;;;4.50;3.50;;;;;;;;;;10501767;28;20044;-79
2023/07/07 13:46:48;;;;;;;5.28;3.60;;;;;;;;;;10480678;28;20040;-81
2023/07/07 13:51:54;;;;;;;5.50;3.92;;;;;;;;;;10477741;28;20040;-79
2023/07/07 13:57:01;;;;;;;4.55;3.75;;;;;;;;;;10473765;28;20044;-82
2023/07/07 14:02:02;;;;;;;5.57;3.50;;;;;;;;;;10477162;28;20036;-82
2023/07/07 14:07:03;;;;;;;4.57;3.70;;;;;;;;;;10484102;28;20100;-83
2023/07/07 14:12:08;;;;;;;5.70;3.77;;;;;;;;;;10483682;28;20033;-82
2023/07/07 14:17:17;;;;;;;4.50;3.63;;;;;;;;;;10482666;28;20051;-82
2023/07/07 14:22:18;;;;;;;4.57;3.67;;;;;;;;;;10488404;28;20056;-83
2023/07/07 14:27:21;;;;;;;5.05;3.75;;;;;;;;;;10465049;28;20036;-82
2023/07/07 14:32:40;;;;;;;4.78;3.72;;;;;;;;;;10461752;28;20035;-82
2023/07/07 14:37:47;;;;;;;4.25;3.70;;;;;;;;;;10483827;28;20451;-82
2023/07/07 14:42:50;;;;;;;3.97;3.50;;;;;;;;;;10486773;28;20048;-82
2023/07/07 14:47:53;;;;;;;5.03;4.07;;;;;;;;;;10479328;28;20052;-81
2023/07/07 14:52:53;;;;;;;3.80;3.40;;;;;;;;;;10510866;28;20033;-82
2023/07/07 14:57:58;;;;;;;4.03;3.58;;;;;;;;;;10506730;28;20044;-82
2023/07/07 15:03:00;;;;;;;4.03;3.63;;;;;;;;;;10520840;28;20105;-82
2023/07/07 15:08:06;;;;;;;4.23;3.50;;;;;;;;;;10521839;28;20677;-82
2023/07/07 15:13:13;;;;;;;4.68;3.80;;;;;;;;;;10485585;28;20039;-83
2023/07/07 15:18:14;;;;;;;4.32;3.70;;;;;;;;;;10481421;28;20044;-83
2023/07/07 15:23:16;;;;;;;5.43;4.20;;;;;;;;;;10465611;28;20064;-82
2023/07/07 15:28:18;;;;;;;3.97;3.43;;;;;;;;;;10483713;28;20604;-82
2023/07/07 15:33:19;;;;;;;4.82;3.67;;;;;;;;;;10462251;28;20044;-81
2023/07/07 15:38:23;;;;;;;4.38;3.40;;;;;;;;;;10462576;28;20052;-82
2023/07/07 15:43:24;;;;;;;5.05;3.83;;;;;;;;;;10485882;28;20060;-83
2023/07/07 15:48:24;;;;;;;;;;;;;;;;;;10482110;28;20135;-82
2023/07/07 15:53:24;;;;;;;3.60;3.30;;;;;;;;;;10475166;28;19920;-84
2023/07/07 15:58:24;;;;;;;;;;;;;;;;;;10464026;28;20114;-80
2023/07/07 16:03:25;;;;;;;6.47;4.30;;;;;;;;;;10481392;28;19915;-84
2023/07/07 16:08:25;;;;;;;4.03;3.60;;;;;;;;;;10547012;28;20040;-81
2023/07/07 16:13:27;;;;;;;4.40;3.63;;;;;;;;;;10509183;28;20135;-81
2023/07/07 16:18:28;;;;;;;4.07;3.28;;;;;;;;;;10487738;28;20036;-82
2023/07/07 16:23:28;;;;;;;4.37;3.30;;;;;;;;;;10528040;28;20202;-83
2023/07/07 16:28:28;;;;;;;6.07;3.97;;;;;;;;;;10516986;28;20019;-82
2023/07/07 16:33:29;;;;;;;3.43;3.13;;;;;;;;;;10500207;28;20032;-84
2023/07/07 16:38:29;;;;;;;3.83;3.42;;;;;;;;;;10483845;28;20131;-83
2023/07/07 16:43:30;;;;;;;6.17;3.53;;;;;;;;;;10477596;28;20475;-84
2023/07/07 16:48:30;;;;;;;4.73;3.33;;;;;;;;;;10479200;28;20040;-84
2023/07/07 16:53:30;;;;;;;5.63;3.50;;;;;;;;;;10465860;28;20040;-82
2023/07/07 16:58:31;;;;;;;4.53;3.60;;;;;;;;;;10500335;28;20040;-84
2023/07/07 17:03:31;;;;;;;4.23;3.30;;;;;;;;;;10457614;28;20856;-81
2023/07/07 17:08:31;;;;;;;5.93;3.57;;;;;;;;;;10462508;28;20047;-82
2023/07/07 17:13:33;;;;;;;4.10;3.35;;;;;;;;;;10470430;28;20037;-85
2023/07/07 17:18:33;;;;;;;4.43;3.40;;;;;;;;;;10485542;28;20032;-84
2023/07/07 17:23:33;;;;;;;3.58;2.90;;;;;;;;;;10453105;28;20037;-86
2023/07/07 17:28:35;;;;;;;3.37;3.07;;;;;;;;;;10500791;28;20136;-87
2023/07/07 17:33:36;;;;;;;;;;;;;;;;;;10524968;28;20060;-86
2023/07/07 17:38:37;;;;;;;12.23;10.10;;;;;;;;;;10527132;28;20014;-83
2023/07/07 17:43:37;;;;;;;3.90;3.50;;;;;;;;;;10525945;28;20334;-86
2023/07/07 17:48:40;;;;;;;4.77;3.43;;;;;;;;;;10508415;28;20066;-86
2023/07/07 17:53:47;;;;;;;4.72;3.00;;;;;;;;;;10485806;28;20413;-86
2023/07/07 17:58:57;;;;;;;4.68;3.10;;;;;;;;;;10493119;28;21336;-86
2023/07/07 18:03:58;;;;;;;3.38;3.05;;;;;;;;;;10450715;28;20059;-82
2023/07/07 18:09:01;;;;;;;5.13;4.00;;;;;;;;;;10487668;28;20036;-87
2023/07/07 18:14:01;;;;;;;4.05;3.00;;;;;;;;;;10457306;28;20044;-83
2023/07/07 18:19:11;;;;;;;4.47;3.00;;;;;;;;;;10506688;28;20050;-85
2023/07/07 18:24:12;;;;;;;5.90;3.08;;;;;;;;;;10505216;28;20050;-86
2023/07/07 18:29:18;;;;;;;4.40;3.20;;;;;;;;;;10529251;28;20046;-87
2023/07/07 18:34:23;;;;;;;3.70;3.35;;;;;;;;;;10520375;28;20234;-86
2023/07/07 18:39:24;;;;;;;4.32;3.30;;;;;;;;;;10512390;28;20047;-85
2023/07/07 18:44:26;;;;;;;2.92;2.63;;;;;;;;;;10515631;28;20478;-88
2023/07/07 18:49:27;;;;;;;3.28;2.97;;;;;;;;;;10555509;28;20040;-86
2023/07/07 18:54:27;;;;;;;4.23;2.90;;;;;;;;;;10513656;28;20395;-81
2023/07/07 18:59:29;;;;;;;4.50;2.93;;;;;;;;;;10516915;28;20039;-79
2023/07/07 19:04:30;;;;;;;;;;;;;;;;;;10519663;28;20495;-83
2023/07/07 19:09:30;;;;;;;4.10;3.20;;;;;;;;;;10520451;28;19931;-81
2023/07/07 19:14:30;;;;;;;4.17;2.97;;;;;;;;;;10516222;28;20062;-78
2023/07/07 19:19:31;;;;;;;3.60;3.20;;;;;;;;;;10522860;28;20046;-81
2023/07/07 19:24:31;;;;;;;3.87;3.13;;;;;;;;;;10493353;28;20049;-81
2023/07/07 19:29:33;;;;;;;7.43;6.30;;;;;;;;;;10499850;28;20071;-81
2023/07/07 19:34:35;;;;;;;6.07;4.97;;;;;;;;;;10531958;28;20845;-83
2023/07/07 19:39:37;;;;;;;5.60;3.80;;;;;;;;;;10508272;28;20039;-79
2023/07/07 19:44:37;;;;;;;4.53;3.60;;;;;;;;;;10515151;28;20457;-79
2023/07/07 19:49:37;;;;;;;5.55;3.70;;;;;;;;;;10510096;28;20641;-80
2023/07/07 19:54:38;;;;;;;4.13;3.63;;;;;;;;;;10513371;28;20122;-77
2023/07/07 19:59:41;;;;;;;5.90;3.93;;;;;;;;;;10495951;28;20053;-77
2023/07/07 20:04:43;;;;;;;5.32;4.10;;;;;;;;;;10518481;28;20592;-80
2023/07/07 20:09:44;;;;;;;4.75;3.80;;;;;;;;;;10516254;28;20085;-79
2023/07/07 20:14:44;;;;;;;5.33;3.83;;;;;;;;;;10525108;28;20129;-82
2023/07/07 20:19:44;;;;;;;5.18;4.30;;;;;;;;;;10522387;28;20048;-81
2023/07/07 20:24:45;;;;;;;4.50;4.10;;;;;;;;;;10503824;28;20067;-79
2023/07/07 20:29:48;;;;;;;6.03;4.40;;;;;;;;;;10518954;28;20039;-81
2023/07/07 20:34:49;;;;;;;4.80;4.17;;;;;;;;;;10523544;28;21119;-81
2023/07/07 20:39:49;;;;;;;5.35;4.50;;;;;;;;;;10511193;28;20040;-82
2023/07/07 20:44:51;;;;;;;7.15;4.28;;;;;;;;;;10506109;28;20151;-80
2023/07/07 20:49:51;;;;;;;4.83;4.13;;;;;;;;;;10518544;28;20438;-80
2023/07/07 20:54:52;;;;;;;5.13;4.57;;;;;;;;;;10519958;28;21132;-81
2023/07/07 20:59:52;;;;;;;4.77;3.90;;;;;;;;;;10526053;28;20184;-83
2023/07/07 21:04:53;;;;;;;5.60;4.70;;;;;;;;;;10559434;28;20648;-87
2023/07/07 21:09:55;;;;;;;5.10;4.50;;;;;;;;;;10547715;28;20294;-82
2023/07/07 21:14:56;;;;;;;7.03;4.93;;;;;;;;;;10527923;28;20659;-83
2023/07/07 21:20:02;;;;;;;6.27;5.40;;;;;;;;;;10546484;28;20043;-82
2023/07/07 21:25:03;;;;;;;6.03;5.47;;;;;;;;;;10539398;28;20957;-79
2023/07/07 21:30:09;;;;;;;6.07;4.70;;;;;;;;;;10520595;28;20055;-81
2023/07/07 21:35:11;;;;;;;6.35;5.10;;;;;;;;;;10538522;28;20028;-81
2023/07/07 21:40:14;;;;;;;5.63;4.53;;;;;;;;;;10518291;28;20039;-84
2023/07/07 21:45:16;;;;;;;7.38;5.10;;;;;;;;;;10545124;28;20040;-79
2023/07/07 21:50:16;;;;;;;8.93;6.00;;;;;;;;;;10519469;28;20123;-79
2023/07/07 21:55:17;;;;;;;7.35;5.47;;;;;;;;;;10540546;28;20043;-82
2023/07/07 22:00:19;;;;;;;5.93;5.00;;;;;;;;;;10541462;28;20122;-82
2023/07/07 22:05:21;;;;;;;7.30;4.70;;;;;;;;;;10517255;28;20116;-81
2023/07/07 22:10:40;;;;;;;6.70;5.50;;;;;;;;;;10539402;28;20024;-87
2023/07/07 22:15:41;;;;;;;6.70;5.75;;;;;;;;;;10543328;28;20040;-80
2023/07/07 22:20:44;;;;;;;6.53;5.90;;;;;;;;;;10519445;28;20032;-78
2023/07/07 22:25:46;;;;;;;8.60;6.93;;;;;;;;;;10515087;28;20051;-78
2023/07/07 22:30:48;;;;;;;9.90;7.25;;;;;;;;;;10532105;28;20032;-82
2023/07/07 22:35:50;;;;;;;8.60;6.80;;;;;;;;;;10526119;28;20032;-78
2023/07/07 22:40:52;;;;;;;7.80;7.05;;;;;;;;;;10526583;28;20051;-79
2023/07/07 22:45:53;;;;;;;9.48;8.57;;;;;;;;;;10512009;28;20115;-80
2023/07/07 22:50:54;;;;;;;8.93;7.93;;;;;;;;;;10525682;28;20024;-80
2023/07/07 22:55:54;;;;;;;9.77;8.10;;;;;;;;;;10511202;28;20438;-78
2023/07/07 23:00:57;;;;;;;10.32;7.82;;;;;;;;;;10525429;28;20123;-82
2023/07/07 23:05:59;;;;;;;8.60;7.70;;;;;;;;;;10512786;28;20059;-78
2023/07/07 23:11:00;;;;;;;9.55;8.25;;;;;;;;;;10528493;28;20040;-79
2023/07/07 23:16:01;;;;;;;8.60;7.70;;;;;;;;;;10526440;28;20040;-77
2023/07/07 23:21:03;;;;;;;9.75;7.60;;;;;;;;;;10496736;28;20040;-77
2023/07/07 23:26:05;;;;;;;9.50;7.75;;;;;;;;;;10489147;28;20035;-80
2023/07/07 23:31:08;;;;;;;9.73;6.85;;;;;;;;;;10486341;28;20124;-79
2023/07/07 23:36:16;;;;;;;8.02;7.20;;;;;;;;;;10471673;28;20063;-77
2023/07/07 23:41:17;;;;;;;7.97;7.00;;;;;;;;;;10480080;28;20488;-79
2023/07/07 23:46:17;;;;;;;8.00;7.10;;;;;;;;;;10483815;28;20039;-79
2023/07/07 23:51:18;;;;;;;9.40;7.50;;;;;;;;;;10489946;28;20267;-76
2023/07/07 23:56:20;;;;;;;9.23;7.27;;;;;;;;;;10456616;28;20069;-77
